Goshen, Illinois
Current Conditions -  °F | °C
As of 12:35 PM on Sunday 21 Dec 2014 (Local Time) from KC75 Reporting Station
Overcast Overcast  
Wind Chill: 29°   Ceiling: 2500
Heat Index: 37°   Visibility: 10mi
Dew Point: 31°   Wind: 13mph
Humidity: 77%   Direction: 170°S
Pressure: 30.09"   Gusts: 16mph
Location:  41.1043°N, 89.8577°W
Report Text: KC75 211835Z AUTO 17011G14KT 10SM OVC025 03/M01 A3009 RMK AO2 T00301006
Loading
Personal Weather Stations






























Interactive Weather Map New forecast layout! Learn more

10-Day Weather Forecast

Advertisements
Track Severe Weather on mobile